Time;durP1;ratioP1;P1;durP2;ratioP2;P2;SDS_P1;SDS_P2;PMS_P1;PMS_P2;Temp;Humidity;BMP_temperature;BMP_pressure;BME280_temperature;BME280_humidity;BME280_pressure;Samples;Min_cycle;Max_cycle;Signal;HPM_P1;HPM_P2
2022/04/15 00:01:32;;;;;;;15.13;6.83;;;;;;;14.98;62.62;100867.22;5051930;28;20076;-78
2022/04/15 00:03:59;;;;;;;14.13;7.50;;;;;;;15.06;62.70;100870.19;5065762;28;20044;-81
2022/04/15 00:06:26;;;;;;;13.90;6.40;;;;;;;15.08;63.03;100893.25;5063579;28;20140;-82
2022/04/15 00:08:53;;;;;;;17.03;6.30;;;;;;;15.00;62.83;100876.19;5063024;28;20401;-80
2022/04/15 00:11:20;;;;;;;16.87;7.30;;;;;;;14.90;62.79;100861.13;5051012;28;20211;-79
2022/04/15 00:13:48;;;;;;;12.30;6.40;;;;;;;15.03;63.46;100889.66;5063014;28;20580;-79
2022/04/15 00:16:15;;;;;;;11.10;5.87;;;;;;;14.86;63.42;100859.22;5068227;28;20558;-81
2022/04/15 00:18:43;;;;;;;12.30;6.80;;;;;;;15.05;63.23;100876.13;5071787;28;20131;-78
2022/04/15 00:21:10;;;;;;;13.80;7.67;;;;;;;14.93;63.08;100856.88;5070203;28;20139;-84
2022/04/15 00:23:38;;;;;;;11.13;6.17;;;;;;;15.02;63.38;100877.56;5066435;28;20136;-84
2022/04/15 00:26:05;;;;;;;9.67;5.63;;;;;;;14.98;63.17;100872.84;5071459;28;20052;-83
2022/04/15 00:28:32;;;;;;;14.30;8.07;;;;;;;14.91;63.34;100853.53;5073141;28;20048;-84
2022/04/15 00:31:00;;;;;;;14.30;7.20;;;;;;;14.88;63.23;100845.72;5075206;28;20127;-83
2022/04/15 00:33:32;;;;;;;18.90;7.53;;;;;;;14.90;63.12;100861.13;5071485;28;20052;-79
2022/04/15 00:36:00;;;;;;;15.57;7.23;;;;;;;14.92;63.50;100870.09;5074284;28;20051;-81
2022/04/15 00:38:26;;;;;;;14.17;7.30;;;;;;;14.91;63.65;100859.16;5070244;28;20127;-80
2022/04/15 00:40:53;;;;;;;13.80;7.30;;;;;;;14.83;63.64;100855.03;5054621;28;20127;-78
2022/04/15 00:43:20;;;;;;;18.53;8.30;;;;;;;14.81;63.66;100846.09;5071146;28;20131;-78
2022/04/15 00:45:47;;;;;;;17.40;7.87;;;;;;;14.87;63.75;100858.94;5070111;28;20127;-79
2022/04/15 00:48:16;;;;;;;16.17;7.23;;;;;;;15.01;63.90;100875.03;5064177;28;20052;-79
2022/04/15 00:50:43;;;;;;;23.00;9.57;;;;;;;15.01;63.95;100886.28;5058543;28;20423;-79
2022/04/15 00:53:12;;;;;;;13.77;7.33;;;;;;;15.01;63.99;100870.28;5076419;28;20139;-80
2022/04/15 00:55:40;;;;;;;16.37;7.30;;;;;;;15.00;63.88;100870.56;5071872;28;20080;-83
2022/04/15 00:58:07;;;;;;;17.23;8.17;;;;;;;14.96;63.72;100866.69;5075677;28;20048;-83
2022/04/15 01:00:36;;;;;;;15.47;8.07;;;;;;;15.01;63.52;100869.41;5069900;28;20052;-82
2022/04/15 01:03:05;;;;;;;16.87;7.70;;;;;;;14.82;63.82;100844.94;5069987;28;20071;-82
2022/04/15 01:05:33;;;;;;;16.23;8.20;;;;;;;14.81;63.50;100846.09;5074445;28;20637;-83
2022/04/15 01:08:03;;;;;;;13.13;7.10;;;;;;;14.90;63.33;100863.09;5072494;28;20102;-83
2022/04/15 01:10:35;;;;;;;14.05;7.93;;;;;;;14.75;63.26;100836.03;5070811;28;20086;-87
2022/04/15 01:13:05;;;;;;;18.87;8.17;;;;;;;14.91;63.13;100865.63;5073966;28;20048;-84
2022/04/15 01:15:52;;;;;;;17.77;8.37;;;;;;;14.75;63.10;100838.00;5069277;28;20049;-84
2022/04/15 01:18:20;;;;;;;18.67;8.13;;;;;;;14.86;63.21;100865.69;5074429;28;20084;-84
2022/04/15 01:20:52;;;;;;;17.23;8.20;;;;;;;14.84;63.09;100862.34;5072838;28;20132;-85
2022/04/15 01:23:20;;;;;;;17.37;9.10;;;;;;;14.66;63.28;100840.66;5072171;28;20049;-84
2022/04/15 01:25:47;;;;;;;16.97;8.17;;;;;;;14.78;63.46;100869.19;5072640;28;20572;-85
2022/04/15 01:28:17;;;;;;;16.03;8.17;;;;;;;14.72;63.31;100856.31;5062691;28;20087;-83
2022/04/15 01:30:45;;;;;;;;;;;;;;;14.65;63.56;100875.53;5074682;28;20048;-83
2022/04/15 01:33:12;;;;;;;18.80;7.57;;;;;;;14.75;63.21;100878.22;5073979;28;19920;-83
2022/04/15 01:35:41;;;;;;;18.35;8.68;;;;;;;14.68;63.53;100860.88;5076893;28;20044;-83
2022/04/15 01:38:13;;;;;;;22.40;8.07;;;;;;;14.57;63.82;100842.47;5077451;28;20079;-83
2022/04/15 01:40:40;;;;;;;19.80;8.33;;;;;;;14.53;63.96;100844.19;5082498;28;20071;-82
2022/04/15 01:43:07;;;;;;;16.03;8.43;;;;;;;14.71;64.04;100879.13;5084447;28;20079;-84
2022/04/15 01:45:34;;;;;;;17.27;8.37;;;;;;;14.75;63.93;100874.56;5069800;28;20056;-84
2022/04/15 01:48:02;;;;;;;19.37;9.53;;;;;;;14.67;64.09;100853.59;5073053;28;20049;-84
2022/04/15 01:50:29;;;;;;;18.20;8.83;;;;;;;14.60;64.31;100868.00;5070176;28;20095;-88
2022/04/15 01:52:58;;;;;;;15.20;7.93;;;;;;;14.57;64.27;100856.53;5074322;28;20048;-87
2022/04/15 01:55:26;;;;;;;19.23;8.27;;;;;;;14.67;64.10;100876.06;5068140;28;20155;-87
2022/04/15 01:57:53;;;;;;;18.27;8.73;;;;;;;14.70;63.99;100864.22;5069446;28;20044;-86
2022/04/15 02:00:21;;;;;;;14.67;6.83;;;;;;;14.56;63.69;100863.25;5050041;28;20057;-87
2022/04/15 02:02:48;;;;;;;11.70;7.30;;;;;;;14.66;63.36;100880.00;5071628;28;20079;-86
2022/04/15 02:05:15;;;;;;;15.40;7.60;;;;;;;14.06;63.50;100793.31;5070329;28;20044;-86
2022/04/15 02:07:41;;;;;;;15.70;8.37;;;;;;;14.51;63.26;100863.34;5070640;28;20173;-84
2022/04/15 02:10:09;;;;;;;13.40;7.70;;;;;;;14.51;63.29;100861.34;5066619;28;20055;-81
2022/04/15 02:12:36;;;;;;;13.87;7.73;;;;;;;14.57;63.21;100876.19;5052617;28;20118;-82
2022/04/15 02:15:03;;;;;;;18.30;9.23;;;;;;;14.18;63.58;100820.97;5071788;28;20087;-81
2022/04/15 02:17:30;;;;;;;20.07;7.73;;;;;;;14.29;63.82;100847.84;5069204;28;20512;-85
2022/04/15 02:19:57;;;;;;;18.97;9.00;;;;;;;14.45;63.86;100876.56;5072077;28;20075;-80
2022/04/15 02:22:24;;;;;;;19.10;8.50;;;;;;;14.32;63.93;100868.84;5050895;28;20087;-80
2022/04/15 02:24:51;;;;;;;15.47;7.83;;;;;;;14.09;64.40;100842.44;5064797;28;20086;-78
2022/04/15 02:27:17;;;;;;;15.67;7.67;;;;;;;14.36;64.45;100887.63;5073132;28;20080;-79
2022/04/15 02:29:44;;;;;;;20.37;8.33;;;;;;;14.22;64.57;100878.22;5066402;28;20135;-80
2022/04/15 02:32:11;;;;;;;18.47;7.00;;;;;;;13.88;64.39;100836.16;5068805;28;20163;-79
2022/04/15 02:34:38;;;;;;;15.37;7.93;;;;;;;14.31;64.56;100895.28;5072471;28;20119;-79
2022/04/15 02:37:05;;;;;;;15.20;7.60;;;;;;;14.30;64.64;100897.25;5068921;28;20539;-79
2022/04/15 02:39:32;;;;;;;14.13;7.30;;;;;;;14.13;64.40;100866.81;5072122;28;20076;-79
2022/04/15 02:42:00;;;;;;;15.27;7.53;;;;;;;14.29;64.50;100904.00;5070640;28;20419;-78
2022/04/15 02:44:29;;;;;;;17.27;7.73;;;;;;;14.13;64.54;100882.81;5058872;28;20047;-78
2022/04/15 02:46:58;;;;;;;13.57;7.90;;;;;;;14.12;64.75;100881.13;5071979;28;20072;-78
2022/04/15 02:49:27;;;;;;;14.43;7.22;;;;;;;14.20;64.58;100901.00;5070646;28;20477;-78
2022/04/15 02:51:55;;;;;;;19.23;7.73;;;;;;;13.99;64.60;100863.88;5069800;28;20052;-78
2022/04/15 02:54:23;;;;;;;15.90;9.00;;;;;;;14.19;64.57;100888.09;5068301;28;20059;-77
2022/04/15 02:56:50;;;;;;;13.33;7.33;;;;;;;14.13;64.95;100894.91;5075546;28;20083;-80
2022/04/15 02:59:17;;;;;;;17.57;7.73;;;;;;;14.05;65.05;100895.56;5070836;28;20132;-78
2022/04/15 03:01:45;;;;;;;14.57;7.73;;;;;;;14.02;64.87;100882.09;5055264;28;20087;-78
2022/04/15 03:04:12;;;;;;;17.93;8.43;;;;;;;14.04;65.06;100895.81;5067402;28;20059;-83
2022/04/15 03:06:40;;;;;;;16.67;7.60;;;;;;;14.13;64.77;100905.28;5067936;28;20068;-86
2022/04/15 03:09:07;;;;;;;15.53;7.90;;;;;;;14.17;64.74;100895.97;5073495;28;20049;-85
2022/04/15 03:11:37;;;;;;;17.40;8.53;;;;;;;14.10;64.76;100886.22;5069323;28;20098;-86
2022/04/15 03:14:05;;;;;;;16.20;8.77;;;;;;;14.17;64.51;100895.97;5066696;28;20040;-86
2022/04/15 03:16:33;;;;;;;25.23;8.80;;;;;;;14.18;64.63;100896.81;5071532;28;20052;-85
2022/04/15 03:19:00;;;;;;;15.63;8.67;;;;;;;13.94;64.53;100858.28;5071462;28;20052;-84
2022/04/15 03:21:27;;;;;;;16.83;7.47;;;;;;;14.14;64.62;100892.91;5065285;28;20075;-85
2022/04/15 03:23:55;;;;;;;16.43;8.07;;;;;;;14.17;64.71;100900.75;5059119;28;20500;-85
2022/04/15 03:26:22;;;;;;;15.40;8.63;;;;;;;13.76;64.73;100845.00;5067089;28;20136;-83
2022/04/15 03:28:49;;;;;;;20.17;9.07;;;;;;;14.02;64.77;100881.22;5075565;28;20090;-82
2022/04/15 03:31:16;;;;;;;18.70;7.43;;;;;;;13.92;65.13;100891.44;5067774;28;20136;-82
2022/04/15 03:33:43;;;;;;;16.30;7.30;;;;;;;13.69;65.85;100884.63;5065805;28;20423;-82
2022/04/15 03:36:10;;;;;;;16.63;7.60;;;;;;;13.54;66.17;100873.53;5061575;28;20151;-81
2022/04/15 03:38:37;;;;;;;16.53;8.13;;;;;;;13.61;66.47;100904.91;5067822;28;20136;-84
2022/04/15 03:41:04;;;;;;;18.87;8.50;;;;;;;13.39;66.23;100874.47;5069463;28;20136;-84
2022/04/15 03:43:32;;;;;;;18.33;9.03;;;;;;;13.32;66.69;100879.56;5066879;28;20064;-80
2022/04/15 03:45:59;;;;;;;17.57;8.50;;;;;;;13.45;66.97;100906.97;5069573;28;20132;-81
2022/04/15 03:48:27;;;;;;;21.07;9.83;;;;;;;13.30;67.09;100887.47;5069927;28;20491;-81
2022/04/15 03:50:54;;;;;;;20.43;9.70;;;;;;;13.31;66.54;100894.75;5072775;28;20111;-79
2022/04/15 03:53:21;;;;;;;14.53;8.40;;;;;;;13.43;66.51;100903.63;5068735;28;20135;-78
2022/04/15 03:55:51;;;;;;;17.57;7.83;;;;;;;13.39;66.99;100913.75;5040233;28;20091;-83
2022/04/15 03:58:18;;;;;;;17.83;8.18;;;;;;;13.36;67.07;100914.31;5051250;28;20048;-82
2022/04/15 04:00:45;;;;;;;15.87;7.97;;;;;;;13.36;66.99;100899.47;5066144;28;20052;-82
2022/04/15 04:03:14;;;;;;;14.00;8.30;;;;;;;13.42;66.89;100910.34;5056191;28;20088;-84
2022/04/15 04:05:41;;;;;;;15.73;8.13;;;;;;;13.36;67.44;100910.69;5057595;28;20051;-84
2022/04/15 04:08:09;;;;;;;18.53;9.53;;;;;;;13.18;67.28;100881.31;5073625;28;20101;-83
2022/04/15 04:10:35;;;;;;;22.60;8.67;;;;;;;13.24;67.76;100897.03;5074434;28;20080;-82
2022/04/15 04:13:03;;;;;;;17.47;8.30;;;;;;;13.36;67.80;100908.72;5063830;28;20456;-84
2022/04/15 04:15:32;;;;;;;13.67;6.93;;;;;;;12.95;67.85;100841.63;5069870;28;20106;-82
2022/04/15 04:17:59;;;;;;;7.67;4.17;;;;;;;13.09;68.45;100897.91;5075267;28;20079;-83
2022/04/15 04:20:26;;;;;;;10.53;5.87;;;;;;;13.09;68.88;100899.88;5074040;28;20088;-83
2022/04/15 04:22:54;;;;;;;10.63;6.30;;;;;;;12.93;69.12;100899.97;5075227;28;20076;-84
2022/04/15 04:25:21;;;;;;;9.93;5.83;;;;;;;12.88;69.20;100893.53;5074683;28;20048;-81
2022/04/15 04:27:48;;;;;;;14.73;5.73;;;;;;;12.87;69.31;100901.13;5072652;28;20135;-82
2022/04/15 04:30:15;;;;;;;12.97;6.77;;;;;;;12.47;69.51;100848.88;5070744;28;20198;-81
2022/04/15 04:32:52;;;;;;;15.30;7.67;;;;;;;12.61;70.02;100879.94;5072353;28;20080;-80
2022/04/15 04:35:21;;;;;;;13.07;7.77;;;;;;;12.64;70.05;100897.00;5076650;28;20128;-79
2022/04/15 04:37:49;;;;;;;16.40;7.67;;;;;;;12.74;69.78;100899.75;5070666;28;20055;-79
2022/04/15 04:40:16;;;;;;;15.93;8.47;;;;;;;12.81;70.06;100902.25;5068776;28;20696;-80
2022/04/15 04:42:46;;;;;;;15.70;8.33;;;;;;;12.85;69.74;100892.16;5077159;28;20079;-85
2022/04/15 04:45:13;;;;;;;12.15;6.68;;;;;;;12.62;69.80;100871.25;5069311;28;20098;-85
2022/04/15 04:47:43;;;;;;;12.33;7.23;;;;;;;12.81;69.91;100894.69;5074172;28;20123;-83
2022/04/15 04:50:10;;;;;;;10.35;5.68;;;;;;;12.54;70.03;100864.25;5066463;28;20077;-80
2022/04/15 04:52:38;;;;;;;14.30;7.23;;;;;;;12.67;70.05;100884.41;5072608;28;20068;-79
2022/04/15 04:55:06;;;;;;;17.33;9.03;;;;;;;12.52;70.09;100860.91;5076493;28;20130;-83
2022/04/15 04:57:35;;;;;;;15.40;8.80;;;;;;;12.55;70.13;100860.34;5059678;28;20053;-82
2022/04/15 05:00:03;;;;;;;19.30;9.23;;;;;;;12.75;70.06;100887.44;5069780;28;20040;-82
2022/04/15 05:02:30;;;;;;;18.20;9.17;;;;;;;12.76;69.90;100888.28;5073196;28;20098;-82
2022/04/15 05:04:57;;;;;;;16.33;8.50;;;;;;;12.72;69.48;100864.78;5075802;28;20550;-85
2022/04/15 05:07:24;;;;;;;17.33;9.87;;;;;;;12.75;69.38;100870.63;5074605;28;20530;-86
2022/04/15 05:09:51;;;;;;;15.63;8.13;;;;;;;12.81;69.39;100866.66;5077574;28;20070;-84
2022/04/15 05:12:19;;;;;;;14.90;8.23;;;;;;;13.07;69.08;100893.75;5073470;28;20070;-79
2022/04/15 05:14:45;;;;;;;19.47;9.23;;;;;;;13.08;68.97;100899.03;5070976;28;20052;-80
2022/04/15 05:17:12;;;;;;;15.93;7.97;;;;;;;13.08;68.40;100873.81;5093305;28;20044;-81
2022/04/15 05:19:42;;;;;;;19.17;10.32;;;;;;;13.14;68.59;100888.66;5087184;28;20124;-81
2022/04/15 05:22:10;;;;;;;16.90;9.43;;;;;;;13.25;68.25;100901.50;5069591;28;20052;-81
2022/04/15 05:24:37;;;;;;;15.10;8.50;;;;;;;13.21;68.46;100894.78;5087828;28;20060;-82
2022/04/15 05:27:05;;;;;;;16.60;9.70;;;;;;;13.05;68.78;100888.41;5090584;28;20059;-78
2022/04/15 05:29:32;;;;;;;25.83;10.47;;;;;;;12.89;68.85;100862.44;5087560;28;20151;-76
2022/04/15 05:31:59;;;;;;;19.37;10.80;;;;;;;12.90;68.96;100866.91;5050919;28;20135;-77
2022/04/15 05:34:26;;;;;;;15.33;9.50;;;;;;;12.83;69.04;100863.59;5064981;28;20143;-76
2022/04/15 05:36:53;;;;;;;22.50;11.23;;;;;;;12.86;69.01;100871.41;5060275;28;20049;-81
2022/04/15 05:39:20;;;;;;;16.90;9.30;;;;;;;13.03;69.02;100899.91;5062605;28;20076;-81
2022/04/15 05:41:47;;;;;;;14.30;8.93;;;;;;;12.84;69.06;100865.25;5073813;28;20539;-80
2022/04/15 05:44:14;;;;;;;17.50;9.87;;;;;;;12.86;69.22;100865.81;5080457;28;20048;-82
2022/04/15 05:46:42;;;;;;;21.13;9.70;;;;;;;12.89;69.04;100869.97;5078731;28;20527;-84
2022/04/15 05:49:13;;;;;;;15.43;9.27;;;;;;;12.84;68.83;100867.22;5070092;28;20143;-83
2022/04/15 05:51:45;;;;;;;16.47;8.97;;;;;;;12.93;68.91;100891.56;5074871;28;20178;-77
2022/04/15 05:54:12;;;;;;;17.83;8.67;;;;;;;12.93;69.26;100899.13;5071472;28;20056;-83
2022/04/15 05:56:39;;;;;;;14.13;8.17;;;;;;;12.73;69.09;100877.66;5072714;28;20127;-80
2022/04/15 05:59:06;;;;;;;13.53;7.03;;;;;;;12.63;68.92;100877.69;5065041;28;20734;-79
2022/04/15 06:01:33;;;;;;;14.97;8.50;;;;;;;12.69;69.25;100899.81;5074347;28;20087;-78
2022/04/15 06:04:00;;;;;;;15.20;9.53;;;;;;;12.72;69.18;100909.59;5071937;28;20044;-82
2022/04/15 06:06:27;;;;;;;19.00;9.93;;;;;;;12.68;68.83;100903.72;5068209;28;20153;-83
2022/04/15 06:08:55;;;;;;;18.13;9.13;;;;;;;12.65;69.12;100906.25;5056437;28;20052;-82
2022/04/15 06:11:22;;;;;;;26.47;8.80;;;;;;;12.59;69.12;100899.00;5070527;28;20052;-77
2022/04/15 06:13:50;;;;;;;17.97;9.87;;;;;;;12.56;68.87;100884.44;5074497;28;20104;-80
2022/04/15 06:16:17;;;;;;;17.10;10.67;;;;;;;12.57;69.04;100891.69;5070417;28;20145;-78
2022/04/15 06:18:44;;;;;;;21.63;10.20;;;;;;;12.77;69.05;100932.00;5068584;28;20051;-78
2022/04/15 06:21:29;;;;;;;16.33;9.03;;;;;;;12.79;68.85;100938.16;5064796;28;20056;-78
2022/04/15 06:23:57;;;;;;;12.80;8.50;;;;;;;12.85;68.40;100931.38;5072666;28;20116;-78
2022/04/15 06:26:24;;;;;;;14.40;9.87;;;;;;;12.81;68.23;100877.88;5071980;28;20083;-78
2022/04/15 06:28:51;;;;;;;16.60;9.73;;;;;;;13.39;68.24;100939.00;5068120;28;20127;-78
2022/04/15 06:31:18;;;;;;;21.77;10.47;;;;;;;13.50;67.87;100925.72;5069837;28;20131;-77
2022/04/15 06:33:45;;;;;;;17.27;9.20;;;;;;;13.64;67.80;100909.06;5053175;28;20109;-77
2022/04/15 06:36:12;;;;;;;16.93;9.03;;;;;;;13.96;67.66;100945.88;5060219;28;20140;-77
2022/04/15 06:38:39;;;;;;;17.23;9.80;;;;;;;13.65;67.31;100854.66;5061553;28;20498;-78
2022/04/15 06:41:05;;;;;;;20.60;10.07;;;;;;;14.29;67.22;100926.50;5066691;28;20566;-80
2022/04/15 06:43:32;;;;;;;20.27;9.47;;;;;;;14.57;66.67;100938.03;5069628;28;20208;-75
2022/04/15 06:46:00;;;;;;;17.33;9.80;;;;;;;14.89;66.13;100952.25;5067116;28;20131;-80
2022/04/15 06:48:27;;;;;;;16.67;9.93;;;;;;;14.92;66.20;100929.16;5065931;28;20114;-75
2022/04/15 06:50:54;;;;;;;13.07;8.67;;;;;;;15.11;65.82;100926.38;5044637;28;20439;-77
2022/04/15 06:53:24;;;;;;;16.77;9.03;;;;;;;15.39;65.29;100941.47;5064524;28;20132;-75
2022/04/15 06:55:51;;;;;;;15.18;10.07;;;;;;;15.58;64.89;100940.63;5068066;28;20075;-76
2022/04/15 06:58:19;;;;;;;14.83;9.40;;;;;;;15.68;64.83;100934.88;5064124;28;20151;-74
2022/04/15 07:00:46;;;;;;;15.00;9.27;;;;;;;15.95;64.14;100944.56;5059089;28;20087;-76
2022/04/15 07:03:15;;;;;;;19.97;12.97;;;;;;;16.13;63.89;100934.41;5067193;28;20051;-76
2022/04/15 07:05:43;;;;;;;19.85;10.10;;;;;;;16.32;63.96;100947.28;5066532;28;20048;-75
2022/04/15 07:08:11;;;;;;;16.15;9.65;;;;;;;16.48;63.98;100955.50;5071833;28;20048;-75
2022/04/15 07:10:39;;;;;;;13.50;8.93;;;;;;;16.58;63.35;100952.44;5063012;28;20064;-76
2022/04/15 07:13:06;;;;;;;14.52;8.82;;;;;;;16.77;63.00;100967.34;5071252;28;20125;-75
2022/04/15 07:15:34;;;;;;;14.15;8.98;;;;;;;16.97;62.76;100965.25;5068358;28;20067;-75
2022/04/15 07:18:03;;;;;;;15.05;8.27;;;;;;;17.14;62.16;100959.00;5067758;28;20056;-76
2022/04/15 07:20:31;;;;;;;16.05;10.60;;;;;;;17.45;61.71;100976.09;5064827;28;20056;-76
2022/04/15 07:22:59;;;;;;;13.43;9.40;;;;;;;17.67;61.45;100967.66;5065274;28;20135;-76
2022/04/15 07:25:26;;;;;;;13.95;9.15;;;;;;;17.76;61.27;100948.81;5066516;28;20143;-76
2022/04/15 07:27:53;;;;;;;11.93;9.00;;;;;;;18.04;60.73;100954.34;5050728;28;20071;-76
2022/04/15 07:30:20;;;;;;;15.50;8.68;;;;;;;18.19;60.45;100953.97;5067851;28;20052;-75
2022/04/15 07:32:47;;;;;;;11.75;8.45;;;;;;;18.49;59.76;100968.44;5068400;28;20138;-76
2022/04/15 07:35:15;;;;;;;14.38;8.65;;;;;;;18.75;59.42;100970.63;5063036;28;20048;-76
2022/04/15 07:37:42;;;;;;;14.38;8.32;;;;;;;18.85;58.92;100965.50;5058917;28;20476;-75
2022/04/15 07:40:10;;;;;;;14.98;9.77;;;;;;;18.99;58.99;100950.41;5066464;28;20106;-75
2022/04/15 07:42:37;;;;;;;15.48;8.82;;;;;;;19.23;58.51;100978.31;5078308;28;20087;-78
2022/04/15 07:45:06;;;;;;;13.35;8.75;;;;;;;19.39;58.27;100976.69;5052612;28;20041;-77
2022/04/15 07:47:33;;;;;;;13.80;7.97;;;;;;;19.40;58.11;100955.69;5067267;28;20499;-74
2022/04/15 07:50:15;;;;;;;12.25;7.90;;;;;;;19.67;57.51;100968.75;5059500;28;20056;-80
2022/04/15 07:52:42;;;;;;;15.15;8.60;;;;;;;19.79;57.11;100968.09;5067325;28;20080;-78
2022/04/15 07:55:10;;;;;;;14.98;9.35;;;;;;;19.96;56.83;100962.41;5063956;28;20113;-80
2022/04/15 07:57:36;;;;;;;13.75;9.30;;;;;;;20.20;56.37;100975.25;5066419;28;20565;-81
2022/04/15 08:00:04;;;;;;;12.98;9.38;;;;;;;20.42;55.95;100972.22;5065047;28;20110;-78
2022/04/15 08:02:31;;;;;;;16.05;9.75;;;;;;;20.47;55.54;100957.00;5063567;28;20060;-78
2022/04/15 08:04:58;;;;;;;15.45;8.80;;;;;;;20.76;55.51;100990.34;5063977;28;20115;-78
2022/04/15 08:07:25;;;;;;;14.02;9.07;;;;;;;20.73;55.03;100954.13;5073201;28;20131;-83
2022/04/15 08:09:52;;;;;;;15.63;9.65;;;;;;;20.90;54.47;100968.25;5063995;28;20048;-75
2022/04/15 08:12:18;;;;;;;16.10;9.88;;;;;;;21.07;54.06;100958.81;5065285;28;20048;-78
2022/04/15 08:14:46;;;;;;;12.05;9.35;;;;;;;21.28;53.59;100975.91;5066119;28;20078;-76
2022/04/15 08:17:14;;;;;;;17.45;9.65;;;;;;;21.55;53.13;100987.97;5069724;28;20127;-77
2022/04/15 08:19:41;;;;;;;14.95;9.13;;;;;;;21.76;52.74;100983.13;5067588;28;20133;-76
2022/04/15 08:22:09;;;;;;;12.82;8.70;;;;;;;21.71;52.48;100974.84;5069009;28;20044;-77
2022/04/15 08:24:42;;;;;;;13.15;8.45;;;;;;;21.84;52.12;100973.69;5073937;28;20048;-76
2022/04/15 08:27:09;;;;;;;17.27;8.93;;;;;;;21.95;52.10;100972.13;5061642;28;20080;-76
2022/04/15 08:29:38;;;;;;;12.50;8.43;;;;;;;22.30;51.62;100994.59;5067977;28;20064;-77
2022/04/15 08:32:08;;;;;;;11.65;8.70;;;;;;;22.18;51.15;100968.91;5060778;28;20041;-77
2022/04/15 08:34:36;;;;;;;13.73;9.05;;;;;;;22.45;50.78;100998.78;5044759;28;20068;-78
2022/04/15 08:37:04;;;;;;;19.20;9.40;;;;;;;22.50;50.00;100986.38;5055139;28;20080;-79
2022/04/15 08:39:31;;;;;;;12.80;9.13;;;;;;;22.51;49.82;100971.78;5058585;28;20123;-78
2022/04/15 08:41:59;;;;;;;14.65;9.32;;;;;;;22.84;49.79;100988.81;5072545;28;20060;-77
2022/04/15 08:44:27;;;;;;;14.35;9.07;;;;;;;22.62;49.26;100940.84;5069396;28;20095;-78
2022/04/15 08:46:54;;;;;;;12.88;8.60;;;;;;;23.10;49.30;100996.22;5069989;28;20044;-78
2022/04/15 08:49:22;;;;;;;15.57;10.00;;;;;;;23.15;48.58;100964.66;5070094;28;20040;-78
2022/04/15 08:51:50;;;;;;;16.95;9.75;;;;;;;23.34;48.46;100973.44;5075665;28;20076;-81
2022/04/15 08:54:21;;;;;;;16.33;9.18;;;;;;;23.57;47.70;100981.50;5077828;28;20135;-79
2022/04/15 08:56:48;;;;;;;15.80;9.10;;;;;;;23.61;47.33;100971.03;5075870;28;20044;-79
2022/04/15 08:59:15;;;;;;;16.13;9.82;;;;;;;23.71;47.07;100979.13;5071075;28;20064;-79
2022/04/15 09:01:43;;;;;;;16.35;9.55;;;;;;;23.74;46.97;100969.84;5076631;28;20071;-79
2022/04/15 09:04:11;;;;;;;15.27;9.60;;;;;;;23.97;46.82;100995.81;5076354;28;20057;-77
2022/04/15 09:06:42;;;;;;;13.80;9.30;;;;;;;24.04;46.37;100995.22;5075964;28;20044;-78
2022/04/15 09:09:14;;;;;;;16.48;9.77;;;;;;;24.10;46.77;100974.63;5074804;28;20125;-78
2022/04/15 09:11:48;;;;;;;15.82;9.88;;;;;;;24.50;46.13;100996.56;5058028;28;20052;-79
2022/04/15 09:14:15;;;;;;;16.13;10.05;;;;;;;24.59;45.60;100993.56;5074758;28;20052;-79
2022/04/15 09:16:47;;;;;;;16.52;10.55;;;;;;;24.75;45.14;101007.84;5058065;28;20079;-80
2022/04/15 09:19:15;;;;;;;13.27;9.18;;;;;;;24.92;44.71;101006.69;5074674;28;20052;-79
2022/04/15 09:21:56;;;;;;;13.35;9.15;;;;;;;25.06;44.61;100995.66;5074646;28;20148;-79
2022/04/15 09:24:33;;;;;;;11.50;7.13;;;;;;;25.18;44.64;100994.75;5075635;28;20045;-79
2022/04/15 09:27:04;;;;;;;13.90;8.63;;;;;;;25.31;44.08;101006.91;5072460;28;20139;-80
2022/04/15 09:29:39;;;;;;;14.00;8.25;;;;;;;25.31;43.70;100996.31;5052200;28;20091;-79
2022/04/15 09:32:08;;;;;;;16.83;8.30;;;;;;;25.36;43.34;100986.59;5075241;28;20121;-79
2022/04/15 09:35:05;;;;;;;14.73;8.07;;;;;;;25.68;43.78;100998.84;5075207;28;20140;-80
2022/04/15 09:37:42;;;;;;;15.25;9.23;;;;;;;25.89;42.86;100998.53;5073582;28;20048;-79
2022/04/15 09:40:14;;;;;;;15.05;9.05;;;;;;;26.04;42.66;101000.47;5074929;28;20060;-78
2022/04/15 09:42:46;;;;;;;15.07;9.52;;;;;;;26.16;42.55;101002.41;5075530;28;20063;-79
2022/04/15 09:45:15;;;;;;;13.25;9.25;;;;;;;26.32;42.56;101008.03;5079730;28;20119;-78
2022/04/15 09:47:50;;;;;;;16.00;8.68;;;;;;;26.35;42.13;100962.28;5076568;28;20072;-82
2022/04/15 09:50:25;;;;;;;17.63;8.98;;;;;;;26.49;41.86;100952.34;5074923;28;20045;-80
2022/04/15 09:52:53;;;;;;;12.80;8.98;;;;;;;27.00;41.75;101013.06;5075343;28;20456;-79
2022/04/15 09:55:23;;;;;;;13.30;8.23;;;;;;;27.07;40.92;100995.19;5057317;28;20110;-79
2022/04/15 09:57:51;;;;;;;18.13;11.65;;;;;;;27.31;40.81;101006.28;5073141;28;20049;-79
2022/04/15 10:00:26;;;;;;;12.88;8.52;;;;;;;27.41;40.61;101005.63;5074386;28;20053;-79
2022/04/15 10:02:54;;;;;;;13.77;8.00;;;;;;;27.37;40.49;100996.13;5057515;28;20079;-79
2022/04/15 10:05:22;;;;;;;12.25;8.35;;;;;;;27.60;39.94;101007.56;5063127;28;20052;-78
2022/04/15 10:07:50;;;;;;;13.00;8.10;;;;;;;27.63;39.64;100986.72;5077339;28;20083;-79
2022/04/15 10:10:17;;;;;;;12.32;8.20;;;;;;;28.08;39.75;101015.69;5074518;28;20094;-79
2022/04/15 10:12:46;;;;;;;11.30;8.15;;;;;;;28.28;39.50;100996.25;5073781;28;20127;-78
2022/04/15 10:15:13;;;;;;;12.32;7.28;;;;;;;28.31;39.50;100996.28;5057226;28;20135;-79
2022/04/15 10:17:42;;;;;;;20.88;10.63;;;;;;;28.39;39.27;100997.25;5077235;28;20040;-79
2022/04/15 10:20:09;;;;;;;11.95;8.35;;;;;;;28.51;38.59;100999.00;5063034;28;20132;-79
2022/04/15 10:22:40;;;;;;;14.00;8.90;;;;;;;28.55;38.35;100953.94;5055112;28;20049;-78
2022/04/15 10:25:07;;;;;;;11.55;7.70;;;;;;;28.96;38.35;100997.03;5041305;28;20112;-78
2022/04/15 10:27:34;;;;;;;12.40;8.75;;;;;;;29.10;38.01;101005.84;5042907;28;20048;-80
2022/04/15 10:30:18;;;;;;;10.55;7.53;;;;;;;29.04;37.94;100976.59;5075545;28;20551;-79
2022/04/15 10:32:53;;;;;;;11.43;6.88;;;;;;;29.47;37.89;100996.25;5074057;28;20108;-78
2022/04/15 10:35:22;;;;;;;11.80;8.30;;;;;;;29.57;37.59;100994.69;5057205;28;20075;-79
2022/04/15 10:38:02;;;;;;;36.67;19.67;;;;;;;29.59;37.39;100992.25;5074097;28;20159;-78
2022/04/15 10:40:31;;;;;;;13.25;9.18;;;;;;;29.41;37.63;100969.94;5073628;28;20084;-79
2022/04/15 10:43:20;;;;;;;11.80;9.45;;;;;;;29.55;37.71;100995.09;5073166;28;20538;-79
2022/04/15 10:45:48;;;;;;;14.65;7.70;;;;;;;29.58;37.14;100990.59;5074103;28;20088;-79
2022/04/15 10:48:28;;;;;;;11.93;7.70;;;;;;;29.58;37.66;100971.28;5074122;28;20510;-79
2022/04/15 10:50:55;;;;;;;12.75;8.23;;;;;;;29.98;36.74;100973.19;5075779;28;20562;-78
2022/04/15 10:53:23;;;;;;;12.13;7.18;;;;;;;30.35;36.73;101011.66;5072416;28;20080;-79
2022/04/15 10:55:52;;;;;;;16.35;8.48;;;;;;;30.48;36.14;100995.66;5075197;28;20239;-79
2022/04/15 10:58:20;;;;;;;14.25;8.45;;;;;;;30.91;36.06;100979.31;5073705;28;20052;-79
2022/04/15 11:01:19;;;;;;;12.98;7.65;;;;;;;31.70;35.05;100982.19;5073677;28;20079;-80
2022/04/15 11:03:53;;;;;;;15.20;8.52;;;;;;;32.60;34.10;100988.50;5073691;28;20049;-79
2022/04/15 11:06:28;;;;;;;14.40;9.30;;;;;;;32.74;33.79;100958.66;5074379;28;20563;-81
2022/04/15 11:09:14;;;;;;;15.63;8.43;;;;;;;32.47;34.21;100978.66;5074157;28;20052;-79
2022/04/15 11:11:44;;;;;;;12.93;8.10;;;;;;;32.08;34.36;100970.97;5073646;28;20530;-79
2022/04/15 11:14:14;;;;;;;14.23;8.27;;;;;;;31.85;34.51;100978.00;5071696;28;20567;-80
2022/04/15 11:16:42;;;;;;;15.93;9.43;;;;;;;31.91;34.60;100983.41;5073034;28;20534;-79
2022/04/15 11:19:11;;;;;;;14.63;9.07;;;;;;;31.87;34.72;100986.31;5056453;28;20567;-80
2022/04/15 11:21:40;;;;;;;15.43;9.30;;;;;;;31.61;34.60;100961.59;5073100;28;20448;-78
2022/04/15 11:24:08;;;;;;;;;;;;;;;31.15;36.37;100971.09;5074617;28;20103;-79